Time;durP1;ratioP1;P1;durP2;ratioP2;P2;SDS_P1;SDS_P2;PMS_P1;PMS_P2;Temp;Humidity;BMP_temperature;BMP_pressure;BME280_temperature;BME280_humidity;BME280_pressure;Samples;Min_cycle;Max_cycle;Signal;HPM_P1;HPM_P2
2022/09/27 00:02:18;;;;;;;11.13;8.90;;;;;;;20.75;70.51;98513.19;4996056;28;20227;-66
2022/09/27 00:04:45;;;;;;;12.07;9.07;;;;;;;20.77;70.73;98511.00;4986295;28;20210;-66
2022/09/27 00:07:13;;;;;;;10.17;9.23;;;;;;;20.76;71.21;98504.81;4975660;28;20659;-66
2022/09/27 00:09:40;;;;;;;10.40;9.33;;;;;;;20.77;71.79;98501.00;4975562;28;20205;-67
2022/09/27 00:12:06;;;;;;;10.20;9.00;;;;;;;20.72;72.38;98487.56;4975943;28;20192;-67
2022/09/27 00:14:33;;;;;;;10.93;9.87;;;;;;;20.75;72.73;98491.59;4974860;28;20713;-67
2022/09/27 00:17:00;;;;;;;9.63;8.87;;;;;;;20.80;73.35;98500.44;4975293;28;20245;-67
2022/09/27 00:19:26;;;;;;;10.30;9.33;;;;;;;20.63;74.28;98473.88;4975478;28;20199;-67
2022/09/27 00:21:53;;;;;;;10.20;9.27;;;;;;;20.67;75.54;98488.41;4994372;28;20194;-67
2022/09/27 00:24:22;;;;;;;10.27;9.37;;;;;;;20.66;75.77;98488.69;4994785;28;20633;-67
2022/09/27 00:26:49;;;;;;;9.57;8.70;;;;;;;20.66;76.08;98494.09;4994855;28;20260;-67
2022/09/27 00:29:18;;;;;;;10.00;9.30;;;;;;;20.65;77.08;98489.78;4994951;28;20206;-67
2022/09/27 00:31:46;;;;;;;9.07;8.47;;;;;;;20.60;78.18;98492.56;4994415;28;20257;-67
2022/09/27 00:34:19;;;;;;;9.00;8.20;;;;;;;20.54;79.04;98499.06;4994845;28;20304;-68
2022/09/27 00:36:46;;;;;;;9.23;8.53;;;;;;;20.50;79.71;98511.53;4995215;28;20190;-67
2022/09/27 00:39:13;;;;;;;8.57;7.97;;;;;;;20.45;80.18;98508.88;4994214;28;20666;-68
2022/09/27 00:41:42;;;;;;;8.80;8.10;;;;;;;20.49;80.84;98504.50;4994188;28;20199;-68
2022/09/27 00:44:42;;;;;;;10.30;9.40;;;;;;;20.48;80.91;98490.25;4994495;28;20206;-67
2022/09/27 00:47:14;;;;;;;9.73;8.70;;;;;;;20.48;81.25;98490.25;4994357;28;20666;-67
2022/09/27 00:49:46;;;;;;;9.90;8.90;;;;;;;20.48;81.55;98484.03;4994871;28;20187;-67
2022/09/27 00:52:19;;;;;;;9.70;8.70;;;;;;;20.48;81.67;98475.94;4994484;28;20230;-67
2022/09/27 00:54:50;;;;;;;10.20;9.10;;;;;;;20.48;81.62;98476.75;4993855;28;20273;-67
2022/09/27 00:57:22;;;;;;;10.03;9.00;;;;;;;20.49;81.39;98477.53;4994812;28;20194;-67
2022/09/27 00:59:52;;;;;;;11.83;9.80;;;;;;;20.46;81.34;98478.13;4994606;28;20199;-67
2022/09/27 01:02:19;;;;;;;10.23;9.23;;;;;;;20.41;82.25;98470.88;4995172;28;20206;-67
2022/09/27 01:04:48;;;;;;;10.83;9.73;;;;;;;20.41;82.59;98481.66;4984824;28;20199;-67
2022/09/27 01:07:15;;;;;;;10.37;9.43;;;;;;;20.40;83.06;98473.84;4986272;28;20268;-67
2022/09/27 01:09:42;;;;;;;9.83;8.93;;;;;;;20.33;84.41;98459.88;5013863;28;20197;-67
2022/09/27 01:12:16;;;;;;;10.10;9.00;;;;;;;20.33;84.54;98447.22;5013536;28;20198;-67
2022/09/27 01:14:58;;;;;;;9.97;9.23;;;;;;;20.34;84.22;98458.81;5013676;28;20208;-69
2022/09/27 01:17:40;;;;;;;10.90;9.93;;;;;;;20.33;84.57;98473.38;5013782;28;20194;-67
2022/09/27 01:20:29;;;;;;;9.63;9.03;;;;;;;20.27;85.40;98477.22;5008231;28;20232;-67
2022/09/27 01:23:14;;;;;;;9.47;8.87;;;;;;;20.23;85.88;98478.88;4994108;28;20245;-67
2022/09/27 01:25:59;;;;;;;9.50;8.80;;;;;;;20.21;86.32;98481.03;4992983;28;20186;-68
2022/09/27 01:28:39;;;;;;;10.17;9.47;;;;;;;20.20;86.33;98472.16;4993908;28;20252;-67
2022/09/27 01:31:14;;;;;;;9.70;9.00;;;;;;;20.19;86.34;98450.84;4993270;28;20190;-68
2022/09/27 01:33:50;;;;;;;9.83;9.23;;;;;;;20.18;86.48;98470.81;4994318;28;20210;-68
2022/09/27 01:36:24;;;;;;;10.10;9.17;;;;;;;20.18;87.07;98462.72;4993156;28;20654;-67
2022/09/27 01:39:09;;;;;;;9.60;8.87;;;;;;;20.12;87.44;98478.13;4994135;28;20195;-67
2022/09/27 01:41:42;;;;;;;10.13;9.40;;;;;;;20.09;87.47;98475.19;4993604;28;20190;-67
2022/09/27 01:44:15;;;;;;;9.10;8.40;;;;;;;20.09;87.68;98483.28;4993619;28;20248;-66
2022/09/27 01:46:48;;;;;;;9.47;8.97;;;;;;;20.10;87.71;98479.50;4993324;28;20187;-66
2022/09/27 01:49:18;;;;;;;9.57;8.83;;;;;;;20.08;87.48;98473.56;4993075;28;20187;-67
2022/09/27 01:51:50;;;;;;;10.20;9.20;;;;;;;20.02;87.77;98463.91;4992956;28;20206;-66
2022/09/27 01:54:23;;;;;;;9.43;8.73;;;;;;;19.93;88.60;98447.50;4994038;28;20269;-67
2022/09/27 01:56:54;;;;;;;10.00;9.13;;;;;;;19.95;89.36;98466.94;4993139;28;20245;-67
2022/09/27 01:59:28;;;;;;;9.50;8.90;;;;;;;19.95;89.18;98469.63;4994023;28;20191;-67
2022/09/27 02:02:00;;;;;;;9.40;8.80;;;;;;;19.89;89.45;98467.25;4993304;28;20195;-67
2022/09/27 02:04:31;;;;;;;9.87;9.33;;;;;;;19.78;90.17;98465.69;4987674;28;20574;-67
2022/09/27 02:07:06;;;;;;;10.03;9.33;;;;;;;19.79;90.46;98456.53;4973696;28;20192;-67
2022/09/27 02:09:39;;;;;;;9.67;9.07;;;;;;;19.83;89.91;98447.59;4973889;28;20187;-66
2022/09/27 02:12:11;;;;;;;10.30;9.70;;;;;;;19.81;89.95;98438.19;4973306;28;20188;-67
2022/09/27 02:14:43;;;;;;;12.83;10.10;;;;;;;19.75;90.47;98425.81;4973538;28;20698;-67
2022/09/27 02:17:20;;;;;;;9.93;9.30;;;;;;;19.74;90.54;98429.63;4973211;28;20187;-67
2022/09/27 02:19:54;;;;;;;10.47;9.67;;;;;;;19.73;90.73;98431.50;4975414;28;20191;-67
2022/09/27 02:22:30;;;;;;;10.70;9.73;;;;;;;19.78;90.77;98434.19;4993005;28;20244;-67
2022/09/27 02:25:02;;;;;;;10.13;9.30;;;;;;;19.78;90.68;98439.56;4992951;28;20193;-67
2022/09/27 02:27:34;;;;;;;10.37;9.47;;;;;;;19.75;90.66;98434.72;4992893;28;20249;-66
2022/09/27 02:30:05;;;;;;;10.70;9.93;;;;;;;19.73;90.60;98447.66;4993155;28;20186;-67
2022/09/27 02:32:33;;;;;;;10.23;9.50;;;;;;;19.66;90.81;98457.16;4992428;28;20759;-68
2022/09/27 02:35:05;;;;;;;11.30;10.43;;;;;;;19.62;91.42;98461.50;4992723;28;20302;-67
2022/09/27 02:37:33;;;;;;;10.27;9.43;;;;;;;19.59;91.73;98472.81;4995410;28;20243;-67
2022/09/27 02:39:59;;;;;;;11.03;10.27;;;;;;;19.47;91.56;98478.53;4996434;28;20289;-68
2022/09/27 02:42:28;;;;;;;10.90;9.90;;;;;;;19.44;92.22;98486.38;4996251;28;20195;-67
2022/09/27 02:44:54;;;;;;;9.73;9.13;;;;;;;19.37;91.69;98488.56;4997031;28;20198;-67
2022/09/27 02:47:55;;;;;;;10.30;9.60;;;;;;;19.26;91.89;98484.28;4996271;28;20330;-67
2022/09/27 02:50:52;;;;;;;12.27;9.83;;;;;;;19.15;91.86;98480.03;4996629;28;20574;-67
2022/09/27 02:53:32;;;;;;;13.00;10.17;;;;;;;18.89;92.98;98459.66;4996716;28;20648;-67
2022/09/27 02:56:04;;;;;;;11.17;9.57;;;;;;;18.86;93.48;98457.50;4997068;28;20637;-67
2022/09/27 02:58:42;;;;;;;11.23;10.20;;;;;;;18.81;92.95;98476.34;4996186;28;20228;-67
2022/09/27 03:01:17;;;;;;;11.00;9.77;;;;;;;18.76;93.16;98463.75;4996068;28;20670;-67
2022/09/27 03:03:52;;;;;;;10.90;10.10;;;;;;;18.81;93.64;98471.78;4995439;28;20208;-67
2022/09/27 03:06:22;;;;;;;10.60;9.80;;;;;;;18.79;93.93;98460.47;4976570;28;20192;-68
2022/09/27 03:08:50;;;;;;;9.90;9.30;;;;;;;18.80;93.94;98450.53;4976449;28;20244;-67
2022/09/27 03:11:16;;;;;;;10.47;9.63;;;;;;;18.86;93.35;98452.13;4976446;28;20194;-67
2022/09/27 03:13:44;;;;;;;11.07;9.90;;;;;;;18.80;93.42;98445.16;4976845;28;20612;-67
2022/09/27 03:16:11;;;;;;;12.37;10.20;;;;;;;18.75;93.73;98450.56;4976461;28;20207;-66
2022/09/27 03:18:37;;;;;;;10.77;9.67;;;;;;;18.77;92.75;98448.38;4976328;28;20195;-65
2022/09/27 03:21:06;;;;;;;10.37;9.47;;;;;;;18.77;92.59;98448.38;4989057;28;20257;-67
2022/09/27 03:23:32;;;;;;;11.27;10.13;;;;;;;18.72;92.49;98432.25;4995989;28;20245;-65
2022/09/27 03:25:59;;;;;;;11.07;10.20;;;;;;;18.76;92.51;98430.63;4996509;28;20256;-66
2022/09/27 03:28:28;;;;;;;10.33;9.63;;;;;;;18.87;92.69;98435.69;4995343;28;20211;-65
2022/09/27 03:30:55;;;;;;;9.73;9.13;;;;;;;18.73;91.29;98431.19;4996043;28;20196;-65
2022/09/27 03:33:22;;;;;;;9.80;9.00;;;;;;;18.67;92.00;98451.13;4995734;28;20242;-66
2022/09/27 03:35:49;;;;;;;10.17;9.07;;;;;;;18.53;92.38;98447.38;4995910;28;20230;-66
2022/09/27 03:38:17;;;;;;;9.83;8.87;;;;;;;18.64;92.36;98435.50;4995260;28;20191;-66
2022/09/27 03:40:44;;;;;;;9.40;8.47;;;;;;;18.63;92.25;98431.22;4995285;28;20681;-66
2022/09/27 03:43:10;;;;;;;9.97;9.03;;;;;;;18.67;91.07;98434.97;4995668;28;20245;-66
2022/09/27 03:45:37;;;;;;;9.63;8.70;;;;;;;18.67;90.82;98422.31;4995118;28;20633;-66
2022/09/27 03:48:04;;;;;;;9.77;8.90;;;;;;;18.63;90.77;98407.78;4994529;28;20260;-65
2022/09/27 03:50:31;;;;;;;10.00;9.13;;;;;;;18.67;90.60;98408.06;4995434;28;20190;-65
2022/09/27 03:52:57;;;;;;;10.07;8.87;;;;;;;18.73;90.18;98413.16;4995667;28;20230;-64
2022/09/27 03:55:26;;;;;;;8.10;7.27;;;;;;;18.73;90.71;98410.47;4995066;28;20290;-59
2022/09/27 03:57:52;;;;;;;20.77;10.20;;;;;;;18.87;90.16;98410.69;5008466;28;20697;-60
2022/09/27 04:00:19;;;;;;;7.73;7.10;;;;;;;19.10;89.16;98416.22;5014563;28;20371;-60
2022/09/27 04:02:46;;;;;;;11.87;8.30;;;;;;;19.45;87.10;98417.97;5014501;28;20658;-60
2022/09/27 04:05:13;;;;;;;8.77;7.90;;;;;;;19.72;85.14;98419.13;5002008;28;20194;-60
2022/09/27 04:07:40;;;;;;;8.13;7.37;;;;;;;20.04;82.78;98422.09;4995376;28;20261;-60
2022/09/27 04:10:07;;;;;;;10.07;7.43;;;;;;;20.25;81.85;98409.25;4995416;28;20202;-60
2022/09/27 04:12:35;;;;;;;7.80;7.13;;;;;;;20.37;81.93;98385.41;4995260;28;20204;-60
2022/09/27 04:15:02;;;;;;;13.07;6.97;;;;;;;20.60;80.95;98392.72;4995235;28;20226;-60
2022/09/27 04:17:29;;;;;;;8.77;7.97;;;;;;;20.90;77.74;98411.25;4994659;28;20623;-60
2022/09/27 04:19:56;;;;;;;14.13;7.60;;;;;;;21.02;77.66;98403.56;4991621;28;20195;-60
2022/09/27 04:22:23;;;;;;;8.43;7.67;;;;;;;21.14;77.01;98403.94;4975461;28;20284;-60
2022/09/27 04:24:50;;;;;;;8.53;7.73;;;;;;;21.18;75.91;98404.16;4975475;28;20213;-60
2022/09/27 04:27:17;;;;;;;13.50;8.17;;;;;;;21.18;75.38;98404.97;4975331;28;20202;-60
2022/09/27 04:29:45;;;;;;;13.80;6.80;;;;;;;21.13;75.62;98402.34;4975355;28;20282;-60
2022/09/27 04:32:12;;;;;;;7.47;6.27;;;;;;;21.17;76.36;98413.38;4975203;28;20231;-60
2022/09/27 04:37:23;;;;;;;8.57;6.67;;;;;;;21.64;73.66;98405.91;4974967;28;20190;-60
2022/09/27 04:39:50;;;;;;;8.70;6.83;;;;;;;21.88;72.39;98425.59;4975153;28;20258;-60
2022/09/27 04:42:17;;;;;;;14.40;8.40;;;;;;;21.89;72.15;98410.97;4974714;28;20571;-60
2022/09/27 04:44:46;;;;;;;7.10;6.50;;;;;;;21.83;72.48;98412.16;4974760;28;20262;-60
2022/09/27 04:47:13;;;;;;;12.23;7.47;;;;;;;22.00;71.83;98401.59;4974674;28;20199;-60
2022/09/27 04:49:40;;;;;;;22.80;8.23;;;;;;;22.20;70.88;98400.44;4974857;28;20199;-60
2022/09/27 04:52:07;;;;;;;10.30;7.10;;;;;;;22.27;70.68;98404.38;4974399;28;20234;-61
2022/09/27 04:54:33;;;;;;;11.43;6.47;;;;;;;22.43;70.02;98404.91;4975396;28;20239;-59
2022/09/27 04:57:00;;;;;;;25.80;8.07;;;;;;;22.62;68.84;98392.91;4975018;28;20214;-60
2022/09/27 04:59:27;;;;;;;14.83;6.57;;;;;;;22.66;68.54;98387.72;4974118;28;20675;-60
2022/09/27 05:01:58;;;;;;;12.43;7.90;;;;;;;22.75;68.31;98392.09;4974506;28;20196;-60
2022/09/27 05:04:25;;;;;;;13.67;6.27;;;;;;;22.86;67.88;98398.13;4980437;28;20218;-60
2022/09/27 05:06:51;;;;;;;14.53;7.53;;;;;;;23.01;67.70;98411.34;4994208;28;20243;-60
2022/09/27 05:09:18;;;;;;;9.23;6.27;;;;;;;23.01;67.63;98400.53;4993914;28;20726;-60
2022/09/27 05:11:45;;;;;;;25.50;8.67;;;;;;;23.05;67.53;98387.97;4993907;28;20195;-60
2022/09/27 05:14:12;;;;;;;12.27;7.77;;;;;;;22.94;68.31;98395.53;4993411;28;20246;-59
2022/09/27 05:16:39;;;;;;;12.90;7.30;;;;;;;22.91;67.46;98415.06;4993826;28;20200;-60
2022/09/27 05:19:07;;;;;;;24.00;8.80;;;;;;;23.00;67.14;98398.94;4993768;28;20203;-60
2022/09/27 05:21:34;;;;;;;14.23;8.17;;;;;;;23.07;68.03;98408.25;4977036;28;20735;-60
2022/09/27 05:24:01;;;;;;;10.37;7.83;;;;;;;23.12;66.70;98410.06;4974162;28;20246;-61
2022/09/27 05:26:28;;;;;;;17.43;7.40;;;;;;;23.19;66.44;98392.28;4974485;28;20256;-60
2022/09/27 05:28:54;;;;;;;11.13;7.97;;;;;;;23.25;66.51;98384.88;4974123;28;20274;-60
2022/09/27 05:31:21;;;;;;;10.27;7.23;;;;;;;23.20;67.05;98374.16;4974184;28;20258;-60
2022/09/27 05:33:47;;;;;;;13.27;8.53;;;;;;;;;;4973601;28;20664;-60
2022/09/27 05:36:16;;;;;;;10.43;7.77;;;;;;;23.40;65.52;98382.63;4973678;28;20586;-60
2022/09/27 05:38:43;;;;;;;69.73;11.17;;;;;;;23.46;65.16;98389.53;4973621;28;20286;-60
2022/09/27 05:41:09;;;;;;;13.20;8.63;;;;;;;23.31;65.39;98381.75;4973635;28;20209;-60
2022/09/27 05:43:36;;;;;;;13.97;8.67;;;;;;;23.17;66.26;98372.81;4973841;28;20200;-60
2022/09/27 05:46:04;;;;;;;16.40;9.07;;;;;;;23.08;66.89;98357.59;4973964;28;20204;-60
2022/09/27 05:48:30;;;;;;;13.57;8.00;;;;;;;23.11;66.40;98357.75;4973484;28;20206;-60
2022/09/27 05:50:58;;;;;;;9.53;7.37;;;;;;;23.17;66.09;98361.97;4973612;28;20669;-60
2022/09/27 05:53:26;;;;;;;17.13;7.57;;;;;;;23.29;65.34;98370.41;4973830;28;20282;-60
2022/09/27 05:55:52;;;;;;;13.87;8.47;;;;;;;23.39;64.73;98370.19;4974110;28;20220;-60
2022/09/27 05:58:19;;;;;;;13.63;9.17;;;;;;;23.47;64.52;98380.28;4973264;28;20755;-60
2022/09/27 06:00:46;;;;;;;13.30;9.27;;;;;;;23.52;64.02;98373.97;4973959;28;20202;-61
2022/09/27 06:03:14;;;;;;;9.30;7.20;;;;;;;23.50;64.65;98371.56;4973426;28;20209;-60
2022/09/27 06:05:41;;;;;;;16.97;8.57;;;;;;;23.55;64.03;98362.47;4989355;28;20232;-60
2022/09/27 06:08:09;;;;;;;10.03;7.60;;;;;;;23.63;63.64;98365.28;4989572;28;20729;-60
2022/09/27 06:10:38;;;;;;;14.03;7.33;;;;;;;23.69;63.41;98358.59;4991516;28;20668;-61
2022/09/27 06:13:07;;;;;;;9.53;6.13;;;;;;;23.85;61.77;98362.56;4992338;28;20640;-59
2022/09/27 06:15:36;;;;;;;27.40;7.13;;;;;;;24.00;62.17;98359.50;4992639;28;20287;-62
2022/09/27 06:18:05;;;;;;;11.07;5.83;;;;;;;24.14;61.45;98362.91;4992706;28;20598;-63
2022/09/27 06:20:32;;;;;;;17.47;5.80;;;;;;;24.12;59.96;98362.44;4991878;28;20225;-64
2022/09/27 06:23:07;;;;;;;33.40;8.63;;;;;;;24.19;59.91;98356.56;5003632;28;20638;-62
2022/09/27 06:25:34;;;;;;;12.43;6.10;;;;;;;24.36;58.75;98359.38;5001507;28;20253;-63
2022/09/27 06:28:02;;;;;;;6.90;6.27;;;;;;;24.30;58.55;98355.97;4991429;28;20197;-60
2022/09/27 06:30:29;;;;;;;6.60;5.97;;;;;;;24.29;58.73;98359.81;4989263;28;20621;-67
2022/09/27 06:32:57;;;;;;;6.70;6.10;;;;;;;24.42;58.52;98393.44;4988254;28;20201;-60
2022/09/27 06:35:24;;;;;;;10.77;6.73;;;;;;;24.50;58.50;98404.31;4990933;28;20222;-66
2022/09/27 06:37:54;;;;;;;8.40;6.37;;;;;;;24.51;58.60;98386.91;4987663;28;20197;-67
2022/09/27 06:40:27;;;;;;;8.30;5.13;;;;;;;24.47;58.48;98380.50;4990020;28;20291;-67
2022/09/27 06:43:14;;;;;;;6.23;5.67;;;;;;;24.56;58.36;98397.66;4989469;28;20596;-66
2022/09/27 06:45:41;;;;;;;11.63;5.97;;;;;;;24.56;58.31;98394.13;4986926;28;20616;-69
2022/09/27 06:48:11;;;;;;;9.13;7.40;;;;;;;24.55;58.42;98398.72;4987991;28;20677;-66
2022/09/27 06:50:39;;;;;;;6.63;6.03;;;;;;;24.53;58.62;98379.25;4988601;28;20201;-67
2022/09/27 06:53:09;;;;;;;15.77;8.70;;;;;;;24.52;58.53;98376.84;4985945;28;20644;-68
2022/09/27 06:55:35;;;;;;;14.80;8.17;;;;;;;24.49;58.94;98377.47;4987226;28;20316;-70
2022/09/27 07:00:49;;;;;;;11.77;6.70;;;;;;;24.77;58.31;98373.47;4986157;28;20681;-66
2022/09/27 07:03:16;;;;;;;8.57;6.70;;;;;;;25.06;57.66;98402.81;4987521;28;20195;-65
2022/09/27 07:05:42;;;;;;;9.13;7.03;;;;;;;25.28;56.91;98400.00;4968658;28;20234;-71
2022/09/27 07:08:10;;;;;;;10.07;7.13;;;;;;;25.63;55.04;98407.06;4963444;28;20254;-69
2022/09/27 07:10:38;;;;;;;13.97;7.77;;;;;;;25.87;54.97;98401.91;4994575;28;20253;-72
2022/09/27 07:13:07;;;;;;;7.93;7.17;;;;;;;26.09;53.79;98399.06;4990094;28;20226;-71
2022/09/27 07:15:35;;;;;;;7.93;7.23;;;;;;;26.35;52.60;98394.34;5003057;28;20965;-73
2022/09/27 07:18:02;;;;;;;7.20;6.50;;;;;;;26.68;51.81;98409.00;4976242;28;20627;-75
2022/09/27 07:20:29;;;;;;;9.93;6.20;;;;;;;26.71;51.86;98400.19;4983561;28;20666;-75
2022/09/27 07:22:56;;;;;;;6.83;6.27;;;;;;;26.86;51.90;98407.81;4991770;28;20191;-72
2022/09/27 07:25:23;;;;;;;8.53;7.77;;;;;;;26.96;51.18;98397.34;4991040;28;20748;-72
2022/09/27 07:27:51;;;;;;;6.93;6.30;;;;;;;26.82;51.43;98385.06;4990740;28;20194;-71
2022/09/27 07:30:20;;;;;;;6.67;6.10;;;;;;;26.83;51.69;98381.22;4988839;28;20628;-69
2022/09/27 07:32:47;;;;;;;9.70;8.13;;;;;;;26.82;52.05;98376.91;4989432;28;20195;-67
2022/09/27 07:35:14;;;;;;;11.37;8.10;;;;;;;26.84;52.88;98358.28;4990997;28;20218;-74
2022/09/27 07:37:41;;;;;;;10.67;7.83;;;;;;;26.83;51.71;98365.66;4990967;28;20823;-73
2022/09/27 07:40:09;;;;;;;8.77;8.07;;;;;;;27.02;50.84;98378.84;4992893;28;20199;-73
2022/09/27 07:42:37;;;;;;;8.13;7.50;;;;;;;27.00;50.61;98392.03;4993700;28;20187;-69
2022/09/27 07:45:06;;;;;;;7.77;7.00;;;;;;;26.85;51.00;98396.13;4991519;28;20286;-68
2022/09/27 07:47:36;;;;;;;9.87;5.70;;;;;;;26.90;51.32;98395.13;4993947;28;20226;-67
2022/09/27 07:50:04;;;;;;;8.00;6.47;;;;;;;27.07;50.88;98397.78;4966607;28;20239;-68
2022/09/27 07:52:30;;;;;;;9.10;7.20;;;;;;;27.00;50.45;98402.94;4972154;28;20310;-70
2022/09/27 07:54:57;;;;;;;7.50;6.70;;;;;;;27.04;51.04;98391.06;4989030;28;20199;-70
2022/09/27 07:57:24;;;;;;;10.37;6.50;;;;;;;27.06;50.35;98383.31;4971487;28;20195;-74
2022/09/27 07:59:51;;;;;;;7.93;6.67;;;;;;;27.21;50.47;98387.44;4971078;28;20384;-69
2022/09/27 08:02:18;;;;;;;7.03;6.33;;;;;;;26.98;51.47;98384.19;4981187;28;20199;-71
2022/09/27 08:04:46;;;;;;;6.33;5.73;;;;;;;26.82;51.93;98385.06;4981072;28;20199;-66
2022/09/27 08:07:14;;;;;;;5.53;5.10;;;;;;;26.77;52.20;98393.41;4970611;28;20679;-70
2022/09/27 08:09:41;;;;;;;7.27;5.57;;;;;;;26.86;52.60;98380.56;4976339;28;20213;-68
2022/09/27 08:12:09;;;;;;;5.53;4.97;;;;;;;26.96;51.64;98386.44;4988164;28;20757;-70
2022/09/27 08:14:35;;;;;;;7.60;4.57;;;;;;;26.68;52.25;98373.59;4986659;28;20246;-68
2022/09/27 08:17:02;;;;;;;5.63;4.57;;;;;;;26.77;51.91;98375.16;4970295;28;20226;-71
2022/09/27 08:19:29;;;;;;;5.17;4.87;;;;;;;26.84;51.90;98375.44;4972340;28;20192;-68
2022/09/27 08:21:57;;;;;;;6.50;5.30;;;;;;;26.71;51.95;98367.50;4988877;28;20717;-68
2022/09/27 08:24:24;;;;;;;6.07;4.67;;;;;;;26.73;52.65;98373.41;4986717;28;20191;-73
2022/09/27 08:26:51;;;;;;;6.07;5.47;;;;;;;26.82;52.21;98374.97;4969082;28;20250;-72
2022/09/27 08:29:18;;;;;;;7.03;4.60;;;;;;;26.89;52.73;98377.97;4970929;28;20722;-67
2022/09/27 08:31:44;;;;;;;5.17;4.77;;;;;;;26.99;51.52;98374.09;4972155;28;20258;-65
2022/09/27 08:34:11;;;;;;;6.53;4.23;;;;;;;27.04;51.50;98376.59;4970459;28;20664;-65
2022/09/27 08:36:38;;;;;;;5.57;5.07;;;;;;;26.97;51.67;98370.88;4970971;28;20219;-62
2022/09/27 08:39:06;;;;;;;12.27;5.30;;;;;;;26.86;52.38;98372.41;4970843;28;20282;-65
2022/09/27 08:41:38;;;;;;;9.90;5.07;;;;;;;26.77;53.12;98369.69;4970794;28;20199;-65
2022/09/27 08:44:14;;;;;;;8.77;4.73;;;;;;;26.61;53.23;98356.94;4972577;28;20804;-64
2022/09/27 08:46:52;;;;;;;6.97;4.57;;;;;;;26.64;51.99;98361.75;4971919;28;20191;-63
2022/09/27 08:49:26;;;;;;;5.43;4.63;;;;;;;26.46;52.76;98354.75;4972335;28;20581;-63
2022/09/27 08:51:54;;;;;;;4.23;4.03;;;;;;;26.47;53.46;98345.44;4970795;28;20745;-64
2022/09/27 08:54:27;;;;;;;11.10;5.00;;;;;;;26.68;52.75;98346.34;4970030;28;20634;-63
2022/09/27 08:57:02;;;;;;;17.13;4.63;;;;;;;26.78;52.79;98351.44;4972841;28;20212;-64
2022/09/27 08:59:34;;;;;;;4.30;4.00;;;;;;;26.75;52.37;98341.97;4973657;28;20192;-63
2022/09/27 09:02:01;;;;;;;4.90;4.20;;;;;;;26.71;52.28;98335.56;4972891;28;20647;-63
2022/09/27 09:04:33;;;;;;;5.73;5.40;;;;;;;25.89;54.80;98320.78;4971609;28;20667;-63
2022/09/27 09:07:09;;;;;;;4.97;4.57;;;;;;;25.99;54.93;98328.63;4972185;28;20618;-64
2022/09/27 09:09:46;;;;;;;6.10;5.60;;;;;;;26.09;54.43;98322.84;4972198;28;20231;-63
2022/09/27 09:12:46;;;;;;;4.07;3.67;;;;;;;26.16;54.57;98328.56;4971942;28;20187;-63
2022/09/27 09:15:53;;;;;;;6.77;4.77;;;;;;;26.31;54.13;98315.25;4969089;28;20560;-63
2022/09/27 09:18:34;;;;;;;6.53;4.40;;;;;;;26.56;53.12;98327.13;4951955;28;20283;-66
2022/09/27 09:21:09;;;;;;;6.53;4.97;;;;;;;26.85;52.30;98329.88;4976353;28;20606;-64
2022/09/27 09:24:00;;;;;;;5.13;3.90;;;;;;;27.03;52.01;98315.03;4990040;28;20576;-64
2022/09/27 09:26:35;;;;;;;6.53;5.10;;;;;;;27.19;50.58;98299.69;4993664;28;20199;-63
2022/09/27 09:29:17;;;;;;;5.40;4.30;;;;;;;27.07;50.71;98300.41;4990483;28;20625;-62
2022/09/27 09:31:51;;;;;;;6.03;5.53;;;;;;;27.16;50.83;98292.94;4974052;28;20249;-62
2022/09/27 09:34:22;;;;;;;5.70;5.40;;;;;;;27.38;50.14;98289.94;4971099;28;20192;-64
2022/09/27 09:36:56;;;;;;;8.50;5.60;;;;;;;27.62;50.68;98279.13;4971722;28;20231;-64
2022/09/27 09:39:28;;;;;;;5.20;4.80;;;;;;;27.93;50.16;98273.22;4971175;28;20190;-63
2022/09/27 09:42:06;;;;;;;8.47;4.73;;;;;;;28.20;48.01;98269.81;4972844;28;20187;-62
2022/09/27 09:44:43;;;;;;;6.03;4.70;;;;;;;28.21;47.96;98274.13;4965191;28;20198;-63
2022/09/27 09:47:19;;;;;;;5.57;4.97;;;;;;;28.23;48.06;98269.94;4969192;28;20282;-63
2022/09/27 09:49:51;;;;;;;4.77;4.37;;;;;;;28.37;48.04;98266.88;4972171;28;20277;-64
2022/09/27 09:52:21;;;;;;;7.10;4.50;;;;;;;28.56;45.74;98264.41;4968697;28;20699;-64
2022/09/27 09:54:53;;;;;;;4.70;4.27;;;;;;;28.71;45.32;98259.03;4970528;28;20206;-66
2022/09/27 09:57:25;;;;;;;6.67;4.90;;;;;;;28.67;43.80;98255.38;4980580;28;20727;-65
2022/09/27 09:59:59;;;;;;;6.43;4.00;;;;;;;28.51;43.60;98240.81;4990312;28;20630;-66
2022/09/27 10:02:31;;;;;;;5.33;4.57;;;;;;;28.52;46.42;98231.50;4952964;28;20192;-65
2022/09/27 10:04:58;;;;;;;7.67;4.37;;;;;;;28.67;44.77;98240.94;4951359;28;20192;-64
2022/09/27 10:07:26;;;;;;;5.17;4.60;;;;;;;28.68;45.86;98239.78;4957990;28;20195;-66
2022/09/27 10:09:59;;;;;;;5.20;4.80;;;;;;;28.57;44.51;98249.59;4969129;28;20200;-66
2022/09/27 10:12:28;;;;;;;6.00;4.70;;;;;;;28.41;45.67;98237.75;4969895;28;20622;-66
2022/09/27 10:14:59;;;;;;;5.03;4.53;;;;;;;28.43;44.96;98235.50;4970126;28;20207;-65
2022/09/27 10:17:35;;;;;;;6.80;4.63;;;;;;;28.62;45.82;98232.94;4969427;28;20273;-66
2022/09/27 10:20:03;;;;;;;5.70;4.70;;;;;;;28.59;44.70;98233.66;4975017;28;20266;-65
2022/09/27 10:22:35;;;;;;;7.77;4.80;;;;;;;28.57;44.23;98233.19;4979502;28;20278;-62
2022/09/27 10:25:06;;;;;;;5.17;4.70;;;;;;;28.48;45.97;98214.19;4969754;28;20202;-63
2022/09/27 10:27:42;;;;;;;5.03;4.70;;;;;;;28.42;45.00;98226.50;4969642;28;20187;-64
2022/09/27 10:30:23;;;;;;;5.57;5.17;;;;;;;28.37;45.75;98217.69;4969444;28;20191;-66
2022/09/27 10:32:53;;;;;;;4.97;4.30;;;;;;;28.45;45.23;98225.00;4975982;28;20186;-62
2022/09/27 10:35:35;;;;;;;4.67;4.37;;;;;;;28.30;45.56;98212.81;4987834;28;20190;-63
2022/09/27 10:38:21;;;;;;;4.80;4.50;;;;;;;28.30;46.14;98212.81;4971766;28;20406;-65
2022/09/27 10:40:49;;;;;;;5.17;4.30;;;;;;;28.11;45.53;98214.50;4969941;28;20202;-65
2022/09/27 10:43:28;;;;;;;4.97;4.43;;;;;;;27.81;46.69;98203.00;4968458;28;20191;-64
2022/09/27 10:46:24;;;;;;;4.90;4.50;;;;;;;27.94;46.73;98199.16;4970044;28;20202;-64
2022/09/27 10:49:11;;;;;;;6.07;4.17;;;;;;;28.13;46.34;98195.88;4970392;28;20254;-63
2022/09/27 10:51:38;;;;;;;4.03;3.73;;;;;;;28.20;45.25;98196.88;4970647;28;20290;-64
2022/09/27 10:54:05;;;;;;;4.73;4.33;;;;;;;28.40;44.96;98189.69;4970703;28;20697;-64
2022/09/27 10:56:34;;;;;;;4.23;3.83;;;;;;;28.41;44.91;98185.84;4968383;28;20227;-63
2022/09/27 10:59:04;;;;;;;5.13;4.77;;;;;;;28.38;46.68;98181.06;4972003;28;20258;-64
2022/09/27 11:01:40;;;;;;;9.00;4.37;;;;;;;28.10;46.43;98175.47;4971391;28;20282;-63
2022/09/27 11:04:07;;;;;;;4.57;4.27;;;;;;;28.17;45.48;98174.94;4969807;28;20191;-64
2022/09/27 11:06:37;;;;;;;7.60;5.00;;;;;;;28.16;47.79;98167.84;4971289;28;20290;-63
2022/09/27 11:09:17;;;;;;;4.60;4.40;;;;;;;28.23;47.91;98168.09;4971164;28;20195;-63
2022/09/27 11:11:45;;;;;;;4.67;4.27;;;;;;;28.29;46.17;98174.91;4970308;28;20203;-64
2022/09/27 11:14:20;;;;;;;6.67;4.50;;;;;;;28.43;46.46;98178.91;4970453;28;20195;-64
2022/09/27 11:17:00;;;;;;;5.00;4.50;;;;;;;28.56;45.44;98169.56;4969280;28;20214;-65
2022/09/27 11:19:51;;;;;;;5.40;4.20;;;;;;;28.72;45.17;98172.38;4970673;28;20246;-64
2022/09/27 11:22:34;;;;;;;6.53;5.20;;;;;;;28.94;46.67;98160.88;4971931;28;20257;-64
2022/09/27 11:25:15;;;;;;;4.43;4.03;;;;;;;29.17;41.61;98178.38;4971205;28;20202;-64
2022/09/27 11:27:55;;;;;;;4.40;3.93;;;;;;;29.24;42.81;98176.63;4972315;28;20195;-64
2022/09/27 11:30:24;;;;;;;8.97;4.07;;;;;;;29.32;41.89;98182.31;4978448;28;20199;-65
2022/09/27 11:33:15;;;;;;;3.60;3.50;;;;;;;29.09;41.14;98168.38;4977614;28;20557;-64
2022/09/27 11:35:55;;;;;;;3.93;3.63;;;;;;;28.72;41.78;98170.44;4960974;28;20254;-65
2022/09/27 11:38:27;;;;;;;5.20;3.60;;;;;;;28.85;42.76;98154.78;4979096;28;20215;-63
2022/09/27 11:41:11;;;;;;;6.73;3.87;;;;;;;28.84;42.37;98142.25;4980797;28;20647;-64
2022/09/27 11:43:54;;;;;;;3.67;3.50;;;;;;;28.82;41.57;98125.38;4982258;28;20242;-63
2022/09/27 11:46:29;;;;;;;4.33;3.87;;;;;;;28.84;41.64;98134.06;4977291;28;20245;-64
2022/09/27 11:49:18;;;;;;;3.93;3.70;;;;;;;28.90;41.92;98135.38;4981543;28;20647;-63
2022/09/27 11:52:00;;;;;;;3.53;3.27;;;;;;;28.87;42.06;98106.03;4971111;28;20315;-64
2022/09/27 11:54:54;;;;;;;4.30;4.00;;;;;;;29.18;40.91;98128.00;4978667;28;20187;-63